Paramount Helsinki — 2CWB3 — position and weather

sailwx.info

Track history (hours):
 
Tides and Currents Weather Stations Pressure Air Temp Water Temp Dewpoint Dewpoint Depression Visibility Wind Speed Wind Dir Waves Ship Positions

Paramount Helsinki

Last reported at 2017-Dec-11 17:00 UTC. Time now 2017-Dec-14 06:29 UTC.
Position N 53°33' W 003°52'.

Length 250 m; draft 8.6 m.

Type: Tanker. MMSI: 235076275.

Date/timePositionNaut miles runAvg speedWind from/ knotsBaromVisibWave heightAir tempDewpointWater temp
2017-Dec-11 17:00N 53°33' W 003°52'5 9.9
2017-Dec-11 16:30N 53°33' W 003°44'611.9
2017-Dec-11 16:01N 53°33' W 003°34'611.8
2017-Dec-11 15:31N 53°33' W 003°24'510.4
2017-Dec-11 15:00N 53°32' W 003°16'5 9.3
2017-Dec-11 14:30N 53°32' W 003°08'611.1
2017-Dec-11 14:01N 53°27' W 003°02'5 8.9
2017-Dec-11 13:30N 53°23' W 002°60'0 0.3
2017-Dec-11 13:00N 53°23' W 003°00'0 0.0
2017-Dec-11 12:30N 53°23' W 003°00'0 0.0
2017-Dec-11 12:00N 53°23' W 003°00'0 0.0
2017-Dec-11 11:30N 53°23' W 003°00'0 0.0
2017-Dec-11 11:00N 53°23' W 003°00'0 0.0
2017-Dec-11 10:27N 53°23' W 003°00'0 0.0
2017-Dec-11 10:00N 53°23' W 003°00'0 0.0
2017-Dec-11 09:30N 53°23' W 003°00'0 0.0
2017-Dec-11 08:57N 53°23' W 003°00'0 0.0
2017-Dec-11 08:30N 53°23' W 003°00'0 0.0
2017-Dec-11 08:00N 53°23' W 003°00'0 0.0
2017-Dec-11 07:30N 53°23' W 003°00'0 0.0
2017-Dec-11 07:00N 53°23' W 003°00'0 0.0
2017-Dec-11 06:30N 53°23' W 003°00'0 0.0
2017-Dec-11 06:00N 53°23' W 003°00'0 0.0
2017-Dec-11 05:27N 53°23' W 003°00'0 0.0
2017-Dec-11 05:00N 53°23' W 003°00'0 0.0
2017-Dec-11 04:30N 53°23' W 003°00'0 0.0
2017-Dec-11 04:00N 53°23' W 003°00'0 0.0
2017-Dec-11 03:30N 53°23' W 003°00'0 0.0
2017-Dec-11 03:00N 53°23' W 003°00'0 0.0
2017-Dec-11 02:30N 53°23' W 003°00'0 0.0
2017-Dec-11 02:00N 53°23' W 003°00'0 0.0
2017-Dec-11 01:30N 53°23' W 003°00'0 0.0
2017-Dec-11 01:00N 53°23' W 003°00'0 0.0
2017-Dec-11 00:30N 53°23' W 003°00'0 0.0
2017-Dec-11 00:00N 53°23' W 003°00'0 0.0
2017-Dec-10 23:30N 53°23' W 003°00'0 0.0
2017-Dec-10 23:00N 53°23' W 003°00'0 0.0
2017-Dec-10 22:30N 53°23' W 003°00'0 0.0
2017-Dec-10 22:00N 53°23' W 003°00'0 0.0
2017-Dec-10 21:30N 53°23' W 003°00'0 0.0
2017-Dec-10 21:00N 53°23' W 003°00'0 0.0
2017-Dec-10 20:30N 53°23' W 003°00'0 0.0
2017-Dec-10 20:00N 53°23' W 003°00'0 0.0
2017-Dec-10 19:30N 53°23' W 003°00'0 0.0
2017-Dec-10 19:00N 53°23' W 003°00'0 0.0
2017-Dec-10 18:30N 53°23' W 003°00'0 0.0
2017-Dec-10 18:00N 53°23' W 003°00'0 0.0
2017-Dec-10 17:24N 53°23' W 003°00'0 0.0
2017-Dec-10 17:00N 53°23' W 003°00'0 0.0
2017-Dec-10 16:30N 53°23' W 003°00'0 0.0
2017-Dec-10 16:00N 53°23' W 003°00'0 0.0
2017-Dec-10 15:30N 53°23' W 003°00'0 0.0
2017-Dec-10 15:00N 53°23' W 003°00'0 0.0
2017-Dec-10 14:30N 53°23' W 003°00'0 0.0
2017-Dec-10 14:00N 53°23' W 003°00'0 0.0
2017-Dec-10 13:30N 53°23' W 003°00'0 0.0
2017-Dec-10 13:00N 53°23' W 003°00'0 0.0
2017-Dec-10 12:27N 53°23' W 003°00'0 0.0
2017-Dec-10 11:57N 53°23' W 003°00'0 0.0
2017-Dec-10 11:30N 53°23' W 003°00'0 0.0
2017-Dec-10 11:00N 53°23' W 003°00'0 0.0
2017-Dec-10 10:30N 53°23' W 003°00'0 0.0
2017-Dec-10 10:00N 53°23' W 003°00'0 0.0
2017-Dec-10 09:30N 53°23' W 003°00'0 0.0
2017-Dec-10 09:00N 53°23' W 003°00'0 0.0
2017-Dec-10 08:27N 53°23' W 003°00'0 0.0
2017-Dec-10 08:00N 53°23' W 003°00'0 0.0
2017-Dec-10 07:30N 53°23' W 003°00'0 0.0
2017-Dec-10 07:00N 53°23' W 003°00'0 0.0
2017-Dec-10 06:30N 53°23' W 003°00'0 0.0
2017-Dec-10 06:00N 53°23' W 003°00'0 0.0
2017-Dec-10 05:30N 53°23' W 003°00'0 0.0
2017-Dec-10 05:00N 53°23' W 003°00'0 0.0
2017-Dec-10 04:30N 53°23' W 003°00'0 0.1
2017-Dec-10 04:00N 53°23' W 003°00'1 2.8
2017-Dec-10 03:30N 53°24' W 003°01'4 8.9
2017-Dec-10 03:00N 53°28' W 003°04'5 9.4
2017-Dec-10 02:30N 53°32' W 003°09'5 9.5
2017-Dec-10 02:00N 53°31' W 003°17'612.1
2017-Dec-10 01:30N 53°32' W 003°27'0 0.5
2017-Dec-10 01:00N 53°32' W 003°27'2 3.2
2017-Dec-10 00:30N 53°31' W 003°29'3 7.0
2017-Dec-10 00:00N 53°31' W 003°35'612.4
2017-Dec-09 23:30N 53°31' W 003°45'612.6
2017-Dec-09 23:00N 53°31' W 003°56'510.3
2017-Dec-09 22:30N 53°31' W 004°05'0 0.8
2017-Dec-09 22:00N 53°31' W 004°05'0 0.4
2017-Dec-09 21:30N 53°31' W 004°05'0 0.4
2017-Dec-09 21:00N 53°31' W 004°05'0 0.5
2017-Dec-09 20:30N 53°30' W 004°05'0 0.5
2017-Dec-09 20:00N 53°30' W 004°04'0 0.8
2017-Dec-09 19:30N 53°30' W 004°04'0 1.0
2017-Dec-09 19:00N 53°30' W 004°03'0 0.9
2017-Dec-09 18:30N 53°30' W 004°03'0 0.7
2017-Dec-09 18:00N 53°29' W 004°02'0 0.5
2017-Dec-09 17:30N 53°29' W 004°02'0 0.3
2017-Dec-09 17:00N 53°29' W 004°02'0 0.1
2017-Dec-09 16:30N 53°29' W 004°02'0 0.4
2017-Dec-09 16:00N 53°29' W 004°02'1 1.0
2017-Dec-09 15:30N 53°28' W 004°01'1 1.1
2017-Dec-09 14:56N 53°28' W 004°02'1 1.4
2017-Dec-09 14:24N 53°29' W 004°03'1 1.7
2017-Dec-09 14:00N 53°29' W 004°04'1 1.9
2017-Dec-09 13:26N 53°29' W 004°06'1 1.9
2017-Dec-09 13:00N 53°29' W 004°07'2 3.0
2017-Dec-09 12:29N 53°29' W 004°05'3 4.8
2017-Dec-09 11:50N 53°30' W 004°00'1 2.1
2017-Dec-09 11:30N 53°29' W 004°01'1 2.3
2017-Dec-09 11:00N 53°29' W 004°03'1 2.0
2017-Dec-09 10:30N 53°29' W 004°05'1 1.6
2017-Dec-09 10:00N 53°29' W 004°06'1 1.2
2017-Dec-09 09:30N 53°29' W 004°07'0 0.9
2017-Dec-09 08:59N 53°29' W 004°08'0 0.6
2017-Dec-09 08:30N 53°28' W 004°08'0 0.4
2017-Dec-09 08:00N 53°28' W 004°08'0 0.3
2017-Dec-09 07:30N 53°28' W 004°08'0 0.4
2017-Dec-09 07:00N 53°28' W 004°08'0 0.5
2017-Dec-09 06:30N 53°28' W 004°08'0 0.5
2017-Dec-09 05:59N 53°28' W 004°07'0 0.5
2017-Dec-09 05:24N 53°27' W 004°07'0 0.5
2017-Dec-09 04:58N 53°27' W 004°07'0 0.4
2017-Dec-09 04:30N 53°27' W 004°06'0 0.1
2017-Dec-09 03:54N 53°27' W 004°06'0 0.5
2017-Dec-09 03:25N 53°27' W 004°07'0 0.4
2017-Dec-09 03:00N 53°27' W 004°07'2 2.9
2017-Dec-09 02:14N 53°28' W 004°04'1 3.0
2017-Dec-09 01:58N 53°28' W 004°03'1 2.3
2017-Dec-09 01:29N 53°27' W 004°03'1 2.5
2017-Dec-09 01:00N 53°27' W 004°05'2 2.9
2017-Dec-09 00:26N 53°27' W 004°08'1 1.9
2017-Dec-09 00:00N 53°28' W 004°09'1 1.4
2017-Dec-08 23:30N 53°27' W 004°08'1 2.1
2017-Dec-08 23:00N 53°27' W 004°07'2 4.2
2017-Dec-08 22:30N 53°27' W 004°03'1 1.3
2017-Dec-08 22:00N 53°27' W 004°04'1 1.7
2017-Dec-08 21:29N 53°27' W 004°06'1 1.3
2017-Dec-08 20:57N 53°27' W 004°07'1 0.8
2017-Dec-08 19:59N 53°27' W 004°08'0 0.3
2017-Dec-08 19:30N 53°27' W 004°08'0 0.2
2017-Dec-08 18:57N 53°27' W 004°08'0 0.1
2017-Dec-08 18:30N 53°27' W 004°08'0 0.3
2017-Dec-08 17:56N 53°27' W 004°08'0 0.3
2017-Dec-08 17:30N 53°27' W 004°08'0 0.4
2017-Dec-08 17:00N 53°27' W 004°08'0 0.3
2017-Dec-08 16:24N 53°27' W 004°07'0 0.2
2017-Dec-08 16:00N 53°28' W 004°08'0 0.2
2017-Dec-08 15:26N 53°28' W 004°07'1 1.7
2017-Dec-08 14:59N 53°27' W 004°07'1 1.2
2017-Dec-08 14:27N 53°27' W 004°08'1 2.4
2017-Dec-08 14:00N 53°28' W 004°06'0 0.5
2017-Dec-08 13:28N 53°27' W 004°06'1 2.7
2017-Dec-08 13:00N 53°28' W 004°08'1 1.3
2017-Dec-08 12:30N 53°28' W 004°09'0 0.8
2017-Dec-08 12:00N 53°28' W 004°08'0 0.4
2017-Dec-08 11:30N 53°28' W 004°08'0 0.6
2017-Dec-08 11:00N 53°27' W 004°08'0 0.8
2017-Dec-08 10:30N 53°28' W 004°08'0 0.7
2017-Dec-08 10:00N 53°28' W 004°07'1 2.6
2017-Dec-08 09:30N 53°28' W 004°05'0 0.6
2017-Dec-08 09:00N 53°28' W 004°05'1 2.0
2017-Dec-08 08:27N 53°28' W 004°07'0 1.0
2017-Dec-08 08:00N 53°28' W 004°08'2 3.8
2017-Dec-08 07:30N 53°29' W 004°05'1 0.9
2017-Dec-08 06:54N 53°28' W 004°05'0 0.7
2017-Dec-08 06:25N 53°28' W 004°06'0 0.4
2017-Dec-08 06:00N 53°28' W 004°06'0 0.3
2017-Dec-08 05:29N 53°28' W 004°06'0 0.2
2017-Dec-08 05:00N 53°28' W 004°06'0 0.1
2017-Dec-08 04:29N 53°28' W 004°06'0 0.1
2017-Dec-08 03:59N 53°28' W 004°06'0 0.2
2017-Dec-08 03:30N 53°28' W 004°06'0 0.4
2017-Dec-08 02:59N 53°28' W 004°07'0 0.5
2017-Dec-08 02:30N 53°28' W 004°07'1 2.8
2017-Dec-08 02:00N 53°27' W 004°05'0 0.8
2017-Dec-08 01:30N 53°27' W 004°06'1 2.4
2017-Dec-08 00:59N 53°28' W 004°07'0 0.2
2017-Dec-08 00:30N 53°28' W 004°08'1 1.1
2017-Dec-08 00:00N 53°28' W 004°07'0 0.4
2017-Dec-07 23:30N 53°28' W 004°07'0 0.5
2017-Dec-07 23:00N 53°28' W 004°07'0 0.6
2017-Dec-07 22:30N 53°28' W 004°06'0 0.6
2017-Dec-07 21:59N 53°28' W 004°07'0 0.2
2017-Dec-07 21:29N 53°28' W 004°07'0 0.4
2017-Dec-07 21:00N 53°28' W 004°07'0 0.3
2017-Dec-07 20:23N 53°28' W 004°07'3 4.2
2017-Dec-07 19:47N 53°30' W 004°08'0 1.8
2017-Dec-07 19:30N 53°31' W 004°07'1 1.3
2017-Dec-07 19:00N 53°30' W 004°08'0 0.9
2017-Dec-07 18:30N 53°30' W 004°08'0 0.8
2017-Dec-07 17:58N 53°29' W 004°09'0 0.7
2017-Dec-07 17:30N 53°29' W 004°09'0 0.8
2017-Dec-07 16:59N 53°29' W 004°09'0 0.8
2017-Dec-07 16:30N 53°28' W 004°08'0 0.5
2017-Dec-07 16:00N 53°28' W 004°08'0 0.8
2017-Dec-07 15:30N 53°28' W 004°08'0 0.7
2017-Dec-07 15:00N 53°27' W 004°08'0 0.7
2017-Dec-07 14:30N 53°27' W 004°08'0 0.9
2017-Dec-07 13:58N 53°27' W 004°09'1 1.1
2017-Dec-07 13:22N 53°26' W 004°08'1 2.1
2017-Dec-07 13:00N 53°26' W 004°07'0 0.3
2017-Dec-07 12:30N 53°26' W 004°07'0 0.4
2017-Dec-07 12:00N 53°26' W 004°07'0 0.9
2017-Dec-07 11:29N 53°26' W 004°08'13110.2
2017-Dec-06 22:35N 51°32' W 005°55'113.6
2017-Dec-06 22:30N 51°31' W 005°55'  
Track history (hours):
 
Tides and Currents Weather Stations Pressure Air Temp Water Temp Dewpoint Dewpoint Depression Visibility Wind Speed Wind Dir Waves Ship Positions

Paramount Helsinki

Last reported at 2017-Dec-11 17:00 UTC. Time now 2017-Dec-14 06:29 UTC.
Position N 53°33' W 003°52'.

Length 250 m; draft 8.6 m.

Type: Tanker. MMSI: 235076275.

Date/timePositionNaut miles runAvg speedWind from/ knotsBaromVisibWave heightAir tempDewpointWater temp
2017-Dec-11 17:00N 53°33' W 003°52'5 9.9
2017-Dec-11 16:30N 53°33' W 003°44'611.9
2017-Dec-11 16:01N 53°33' W 003°34'611.8
2017-Dec-11 15:31N 53°33' W 003°24'510.4
2017-Dec-11 15:00N 53°32' W 003°16'5 9.3
2017-Dec-11 14:30N 53°32' W 003°08'611.1
2017-Dec-11 14:01N 53°27' W 003°02'5 8.9
2017-Dec-11 13:30N 53°23' W 002°60'0 0.3
2017-Dec-11 13:00N 53°23' W 003°00'0 0.0
2017-Dec-11 12:30N 53°23' W 003°00'0 0.0
2017-Dec-11 12:00N 53°23' W 003°00'0 0.0
2017-Dec-11 11:30N 53°23' W 003°00'0 0.0
2017-Dec-11 11:00N 53°23' W 003°00'0 0.0
2017-Dec-11 10:27N 53°23' W 003°00'0 0.0
2017-Dec-11 10:00N 53°23' W 003°00'0 0.0
2017-Dec-11 09:30N 53°23' W 003°00'0 0.0
2017-Dec-11 08:57N 53°23' W 003°00'0 0.0
2017-Dec-11 08:30N 53°23' W 003°00'0 0.0
2017-Dec-11 08:00N 53°23' W 003°00'0 0.0
2017-Dec-11 07:30N 53°23' W 003°00'0 0.0
2017-Dec-11 07:00N 53°23' W 003°00'0 0.0
2017-Dec-11 06:30N 53°23' W 003°00'0 0.0
2017-Dec-11 06:00N 53°23' W 003°00'0 0.0
2017-Dec-11 05:27N 53°23' W 003°00'0 0.0
2017-Dec-11 05:00N 53°23' W 003°00'0 0.0
2017-Dec-11 04:30N 53°23' W 003°00'0 0.0
2017-Dec-11 04:00N 53°23' W 003°00'0 0.0
2017-Dec-11 03:30N 53°23' W 003°00'0 0.0
2017-Dec-11 03:00N 53°23' W 003°00'0 0.0
2017-Dec-11 02:30N 53°23' W 003°00'0 0.0
2017-Dec-11 02:00N 53°23' W 003°00'0 0.0
2017-Dec-11 01:30N 53°23' W 003°00'0 0.0
2017-Dec-11 01:00N 53°23' W 003°00'0 0.0
2017-Dec-11 00:30N 53°23' W 003°00'0 0.0
2017-Dec-11 00:00N 53°23' W 003°00'0 0.0
2017-Dec-10 23:30N 53°23' W 003°00'0 0.0
2017-Dec-10 23:00N 53°23' W 003°00'0 0.0
2017-Dec-10 22:30N 53°23' W 003°00'0 0.0
2017-Dec-10 22:00N 53°23' W 003°00'0 0.0
2017-Dec-10 21:30N 53°23' W 003°00'0 0.0
2017-Dec-10 21:00N 53°23' W 003°00'0 0.0
2017-Dec-10 20:30N 53°23' W 003°00'0 0.0
2017-Dec-10 20:00N 53°23' W 003°00'0 0.0
2017-Dec-10 19:30N 53°23' W 003°00'0 0.0
2017-Dec-10 19:00N 53°23' W 003°00'0 0.0
2017-Dec-10 18:30N 53°23' W 003°00'0 0.0
2017-Dec-10 18:00N 53°23' W 003°00'0 0.0
2017-Dec-10 17:24N 53°23' W 003°00'0 0.0
2017-Dec-10 17:00N 53°23' W 003°00'0 0.0
2017-Dec-10 16:30N 53°23' W 003°00'0 0.0
2017-Dec-10 16:00N 53°23' W 003°00'0 0.0
2017-Dec-10 15:30N 53°23' W 003°00'0 0.0
2017-Dec-10 15:00N 53°23' W 003°00'0 0.0
2017-Dec-10 14:30N 53°23' W 003°00'0 0.0
2017-Dec-10 14:00N 53°23' W 003°00'0 0.0
2017-Dec-10 13:30N 53°23' W 003°00'0 0.0
2017-Dec-10 13:00N 53°23' W 003°00'0 0.0
2017-Dec-10 12:27N 53°23' W 003°00'0 0.0
2017-Dec-10 11:57N 53°23' W 003°00'0 0.0
2017-Dec-10 11:30N 53°23' W 003°00'0 0.0
2017-Dec-10 11:00N 53°23' W 003°00'0 0.0
2017-Dec-10 10:30N 53°23' W 003°00'0 0.0
2017-Dec-10 10:00N 53°23' W 003°00'0 0.0
2017-Dec-10 09:30N 53°23' W 003°00'0 0.0
2017-Dec-10 09:00N 53°23' W 003°00'0 0.0
2017-Dec-10 08:27N 53°23' W 003°00'0 0.0
2017-Dec-10 08:00N 53°23' W 003°00'0 0.0
2017-Dec-10 07:30N 53°23' W 003°00'0 0.0
2017-Dec-10 07:00N 53°23' W 003°00'0 0.0
2017-Dec-10 06:30N 53°23' W 003°00'0 0.0
2017-Dec-10 06:00N 53°23' W 003°00'0 0.0
2017-Dec-10 05:30N 53°23' W 003°00'0 0.0
2017-Dec-10 05:00N 53°23' W 003°00'0 0.0
2017-Dec-10 04:30N 53°23' W 003°00'0 0.1
2017-Dec-10 04:00N 53°23' W 003°00'1 2.8
2017-Dec-10 03:30N 53°24' W 003°01'4 8.9
2017-Dec-10 03:00N 53°28' W 003°04'5 9.4
2017-Dec-10 02:30N 53°32' W 003°09'5 9.5
2017-Dec-10 02:00N 53°31' W 003°17'612.1
2017-Dec-10 01:30N 53°32' W 003°27'0 0.5
2017-Dec-10 01:00N 53°32' W 003°27'2 3.2
2017-Dec-10 00:30N 53°31' W 003°29'3 7.0
2017-Dec-10 00:00N 53°31' W 003°35'612.4
2017-Dec-09 23:30N 53°31' W 003°45'612.6
2017-Dec-09 23:00N 53°31' W 003°56'510.3
2017-Dec-09 22:30N 53°31' W 004°05'0 0.8
2017-Dec-09 22:00N 53°31' W 004°05'0 0.4
2017-Dec-09 21:30N 53°31' W 004°05'0 0.4
2017-Dec-09 21:00N 53°31' W 004°05'0 0.5
2017-Dec-09 20:30N 53°30' W 004°05'0 0.5
2017-Dec-09 20:00N 53°30' W 004°04'0 0.8
2017-Dec-09 19:30N 53°30' W 004°04'0 1.0
2017-Dec-09 19:00N 53°30' W 004°03'0 0.9
2017-Dec-09 18:30N 53°30' W 004°03'0 0.7
2017-Dec-09 18:00N 53°29' W 004°02'0 0.5
2017-Dec-09 17:30N 53°29' W 004°02'0 0.3
2017-Dec-09 17:00N 53°29' W 004°02'0 0.1
2017-Dec-09 16:30N 53°29' W 004°02'0 0.4
2017-Dec-09 16:00N 53°29' W 004°02'1 1.0
2017-Dec-09 15:30N 53°28' W 004°01'1 1.1
2017-Dec-09 14:56N 53°28' W 004°02'1 1.4
2017-Dec-09 14:24N 53°29' W 004°03'1 1.7
2017-Dec-09 14:00N 53°29' W 004°04'1 1.9
2017-Dec-09 13:26N 53°29' W 004°06'1 1.9
2017-Dec-09 13:00N 53°29' W 004°07'2 3.0
2017-Dec-09 12:29N 53°29' W 004°05'3 4.8
2017-Dec-09 11:50N 53°30' W 004°00'1 2.1
2017-Dec-09 11:30N 53°29' W 004°01'1 2.3
2017-Dec-09 11:00N 53°29' W 004°03'1 2.0
2017-Dec-09 10:30N 53°29' W 004°05'1 1.6
2017-Dec-09 10:00N 53°29' W 004°06'1 1.2
2017-Dec-09 09:30N 53°29' W 004°07'0 0.9
2017-Dec-09 08:59N 53°29' W 004°08'0 0.6
2017-Dec-09 08:30N 53°28' W 004°08'0 0.4
2017-Dec-09 08:00N 53°28' W 004°08'0 0.3
2017-Dec-09 07:30N 53°28' W 004°08'0 0.4
2017-Dec-09 07:00N 53°28' W 004°08'0 0.5
2017-Dec-09 06:30N 53°28' W 004°08'0 0.5
2017-Dec-09 05:59N 53°28' W 004°07'0 0.5
2017-Dec-09 05:24N 53°27' W 004°07'0 0.5
2017-Dec-09 04:58N 53°27' W 004°07'0 0.4
2017-Dec-09 04:30N 53°27' W 004°06'0 0.1
2017-Dec-09 03:54N 53°27' W 004°06'0 0.5
2017-Dec-09 03:25N 53°27' W 004°07'0 0.4
2017-Dec-09 03:00N 53°27' W 004°07'2 2.9
2017-Dec-09 02:14N 53°28' W 004°04'1 3.0
2017-Dec-09 01:58N 53°28' W 004°03'1 2.3
2017-Dec-09 01:29N 53°27' W 004°03'1 2.5
2017-Dec-09 01:00N 53°27' W 004°05'2 2.9
2017-Dec-09 00:26N 53°27' W 004°08'1 1.9
2017-Dec-09 00:00N 53°28' W 004°09'1 1.4
2017-Dec-08 23:30N 53°27' W 004°08'1 2.1
2017-Dec-08 23:00N 53°27' W 004°07'2 4.2
2017-Dec-08 22:30N 53°27' W 004°03'1 1.3
2017-Dec-08 22:00N 53°27' W 004°04'1 1.7
2017-Dec-08 21:29N 53°27' W 004°06'1 1.3
2017-Dec-08 20:57N 53°27' W 004°07'1 0.8
2017-Dec-08 19:59N 53°27' W 004°08'0 0.3
2017-Dec-08 19:30N 53°27' W 004°08'0 0.2
2017-Dec-08 18:57N 53°27' W 004°08'0 0.1
2017-Dec-08 18:30N 53°27' W 004°08'0 0.3
2017-Dec-08 17:56N 53°27' W 004°08'0 0.3
2017-Dec-08 17:30N 53°27' W 004°08'0 0.4
2017-Dec-08 17:00N 53°27' W 004°08'0 0.3
2017-Dec-08 16:24N 53°27' W 004°07'0 0.2
2017-Dec-08 16:00N 53°28' W 004°08'0 0.2
2017-Dec-08 15:26N 53°28' W 004°07'1 1.7
2017-Dec-08 14:59N 53°27' W 004°07'1 1.2
2017-Dec-08 14:27N 53°27' W 004°08'1 2.4
2017-Dec-08 14:00N 53°28' W 004°06'0 0.5
2017-Dec-08 13:28N 53°27' W 004°06'1 2.7
2017-Dec-08 13:00N 53°28' W 004°08'1 1.3
2017-Dec-08 12:30N 53°28' W 004°09'0 0.8
2017-Dec-08 12:00N 53°28' W 004°08'0 0.4
2017-Dec-08 11:30N 53°28' W 004°08'0 0.6
2017-Dec-08 11:00N 53°27' W 004°08'0 0.8
2017-Dec-08 10:30N 53°28' W 004°08'0 0.7
2017-Dec-08 10:00N 53°28' W 004°07'1 2.6
2017-Dec-08 09:30N 53°28' W 004°05'0 0.6
2017-Dec-08 09:00N 53°28' W 004°05'1 2.0
2017-Dec-08 08:27N 53°28' W 004°07'0 1.0
2017-Dec-08 08:00N 53°28' W 004°08'2 3.8
2017-Dec-08 07:30N 53°29' W 004°05'1 0.9
2017-Dec-08 06:54N 53°28' W 004°05'0 0.7
2017-Dec-08 06:25N 53°28' W 004°06'0 0.4
2017-Dec-08 06:00N 53°28' W 004°06'0 0.3
2017-Dec-08 05:29N 53°28' W 004°06'0 0.2
2017-Dec-08 05:00N 53°28' W 004°06'0 0.1
2017-Dec-08 04:29N 53°28' W 004°06'0 0.1
2017-Dec-08 03:59N 53°28' W 004°06'0 0.2
2017-Dec-08 03:30N 53°28' W 004°06'0 0.4
2017-Dec-08 02:59N 53°28' W 004°07'0 0.5
2017-Dec-08 02:30N 53°28' W 004°07'1 2.8
2017-Dec-08 02:00N 53°27' W 004°05'0 0.8
2017-Dec-08 01:30N 53°27' W 004°06'1 2.4
2017-Dec-08 00:59N 53°28' W 004°07'0 0.2
2017-Dec-08 00:30N 53°28' W 004°08'1 1.1
2017-Dec-08 00:00N 53°28' W 004°07'0 0.4
2017-Dec-07 23:30N 53°28' W 004°07'0 0.5
2017-Dec-07 23:00N 53°28' W 004°07'0 0.6
2017-Dec-07 22:30N 53°28' W 004°06'0 0.6
2017-Dec-07 21:59N 53°28' W 004°07'0 0.2
2017-Dec-07 21:29N 53°28' W 004°07'0 0.4
2017-Dec-07 21:00N 53°28' W 004°07'0 0.3
2017-Dec-07 20:23N 53°28' W 004°07'3 4.2
2017-Dec-07 19:47N 53°30' W 004°08'0 1.8
2017-Dec-07 19:30N 53°31' W 004°07'1 1.3
2017-Dec-07 19:00N 53°30' W 004°08'0 0.9
2017-Dec-07 18:30N 53°30' W 004°08'0 0.8
2017-Dec-07 17:58N 53°29' W 004°09'0 0.7
2017-Dec-07 17:30N 53°29' W 004°09'0 0.8
2017-Dec-07 16:59N 53°29' W 004°09'0 0.8
2017-Dec-07 16:30N 53°28' W 004°08'0 0.5
2017-Dec-07 16:00N 53°28' W 004°08'0 0.8
2017-Dec-07 15:30N 53°28' W 004°08'0 0.7
2017-Dec-07 15:00N 53°27' W 004°08'0 0.7
2017-Dec-07 14:30N 53°27' W 004°08'0 0.9
2017-Dec-07 13:58N 53°27' W 004°09'1 1.1
2017-Dec-07 13:22N 53°26' W 004°08'1 2.1
2017-Dec-07 13:00N 53°26' W 004°07'0 0.3
2017-Dec-07 12:30N 53°26' W 004°07'0 0.4
2017-Dec-07 12:00N 53°26' W 004°07'0 0.9
2017-Dec-07 11:29N 53°26' W 004°08'13110.2
2017-Dec-06 22:35N 51°32' W 005°55'113.6
2017-Dec-06 22:30N 51°31' W 005°55'  

Dump ship's entire track history